Map

Track Data

SID SEASON NUMBER BASIN SUBBASIN NAME ISO_TIME NATURE LAT LON WMO_WIND WMO_PRES WMO_AGENCY TRACK_TYPE DIST2LAND LANDFALL IFLAG USA_AGENCY USA_ATCF_ID USA_LAT USA_LON USA_RECORD USA_STATUS USA_WIND USA_PRES USA_SSHS USA_R34_NE USA_R34_SE USA_R34_SW USA_R34_NW USA_R50_NE USA_R50_SE USA_R50_SW USA_R50_NW USA_R64_NE USA_R64_SE USA_R64_SW USA_R64_NW USA_POCI USA_ROCI USA_RMW USA_EYE TOKYO_LAT TOKYO_LON TOKYO_GRADE TOKYO_WIND TOKYO_PRES TOKYO_R50_DIR TOKYO_R50_LONG TOKYO_R50_SHORT TOKYO_R30_DIR TOKYO_R30_LONG TOKYO_R30_SHORT TOKYO_LAND CMA_LAT CMA_LON CMA_CAT CMA_WIND CMA_PRES HKO_LAT HKO_LON HKO_CAT HKO_WIND HKO_PRES NEWDELHI_LAT NEWDELHI_LON NEWDELHI_GRADE NEWDELHI_WIND NEWDELHI_PRES NEWDELHI_CI NEWDELHI_DP NEWDELHI_POCI REUNION_LAT REUNION_LON REUNION_TYPE REUNION_WIND REUNION_PRES REUNION_TNUM REUNION_CI REUNION_RMW REUNION_R34_NE REUNION_R34_SE REUNION_R34_SW REUNION_R34_NW REUNION_R50_NE REUNION_R50_SE REUNION_R50_SW REUNION_R50_NW REUNION_R64_NE REUNION_R64_SE REUNION_R64_SW REUNION_R64_NW BOM_LAT BOM_LON BOM_TYPE BOM_WIND BOM_PRES BOM_TNUM BOM_CI BOM_RMW BOM_R34_NE BOM_R34_SE BOM_R34_SW BOM_R34_NW BOM_R50_NE BOM_R50_SE BOM_R50_SW BOM_R50_NW BOM_R64_NE BOM_R64_SE BOM_R64_SW BOM_R64_NW BOM_ROCI BOM_POCI BOM_EYE BOM_POS_METHOD BOM_PRES_METHOD NADI_LAT NADI_LON NADI_CAT NADI_WIND NADI_PRES WELLINGTON_LAT WELLINGTON_LON WELLINGTON_WIND WELLINGTON_PRES DS824_LAT DS824_LON DS824_STAGE DS824_WIND DS824_PRES TD9636_LAT TD9636_LON TD9636_STAGE TD9636_WIND TD9636_PRES TD9635_LAT TD9635_LON TD9635_WIND TD9635_PRES TD9635_ROCI NEUMANN_LAT NEUMANN_LON NEUMANN_CLASS NEUMANN_WIND NEUMANN_PRES MLC_LAT MLC_LON MLC_CLASS MLC_WIND MLC_PRES USA_GUST BOM_GUST BOM_GUST_PER REUNION_GUST REUNION_GUST_PER USA_SEAHGT USA_SEARAD_NE USA_SEARAD_SE USA_SEARAD_SW USA_SEARAD_NW STORM_SPEED STORM_DIR
1982252N26269 1982 71 NA GM CHRIS 1982-09-09 00:00:00 SS 26.2000 -91.0000 25 1010 hurdat_atl main 323 323 O_____________ hurdat_atl AL051982 26.2000 -91.0000 SD 25 1010 -2 7 279
1982252N26269 1982 71 NA GM CHRIS 1982-09-09 03:00:00 SS 26.2527 -91.3624 main 316 316 P_____________ AL051982 26.2527 -91.3624 SD 25 1010 -2 6 279
1982252N26269 1982 71 NA GM CHRIS 1982-09-09 06:00:00 SS 26.3000 -91.7000 25 1010 hurdat_atl main 322 322 O_____________ hurdat_atl AL051982 26.3000 -91.7000 SD 25 1010 -2 6 279
1982252N26269 1982 71 NA GM CHRIS 1982-09-09 09:00:00 SS 26.3423 -92.0001 main 330 320 P_____________ AL051982 26.3423 -92.0001 SD 25 1009 -2 5 281
1982252N26269 1982 71 NA GM CHRIS 1982-09-09 12:00:00 SS 26.4000 -92.3000 25 1009 hurdat_atl main 331 330 O_____________ hurdat_atl AL051982 26.4000 -92.3000 SD 25 1009 -2 6 284
1982252N26269 1982 71 NA GM CHRIS 1982-09-09 15:00:00 SS 26.4927 -92.6874 main 337 329 P_____________ AL051982 26.4927 -92.6874 SD 27 1009 -2 7 288
1982252N26269 1982 71 NA GM CHRIS 1982-09-09 18:00:00 SS 26.6000 -93.0000 30 1009 hurdat_atl main 330 320 O_____________ hurdat_atl AL051982 26.6000 -93.0000 SD 30 1009 -2 4 305
1982252N26269 1982 71 NA GM CHRIS 1982-09-09 21:00:00 SS 26.7071 -93.0352 main 320 309 P_____________ AL051982 26.7071 -93.0352 SD 30 1008 -2 2 335
1982252N26269 1982 71 NA GM CHRIS 1982-09-10 00:00:00 TS 26.8000 -93.1000 30 1008 hurdat_atl main 311 296 O_____________ hurdat_atl AL051982 26.8000 -93.1000 TD 30 1008 -1 5 286
1982252N26269 1982 71 NA GM CHRIS 1982-09-10 03:00:00 TS 26.8356 -93.5426 main 296 262 P_____________ AL051982 26.8356 -93.5426 TD 30 1007 -1 8 277
1982252N26269 1982 71 NA GM CHRIS 1982-09-10 06:00:00 TS 26.9000 -94.0000 30 1007 hurdat_atl main 262 232 O_____________ hurdat_atl AL051982 26.9000 -94.0000 TD 30 1007 -1 6 292
1982252N26269 1982 71 NA GM CHRIS 1982-09-10 09:00:00 TS 27.0623 -94.1750 main 232 213 P_____________ AL051982 27.0623 -94.1750 TD 32 1006 -1 4 336
1982252N26269 1982 71 NA GM CHRIS 1982-09-10 12:00:00 TS 27.3000 -94.2000 35 1005 hurdat_atl main 213 184 O_____________ hurdat_atl AL051982 27.3000 -94.2000 TS 35 1005 0 5 3
1982252N26269 1982 71 NA GM CHRIS 1982-09-10 15:00:00 TS 27.5925 -94.1652 main 184 163 P_____________ AL051982 27.5925 -94.1652 TS 40 1003 0 6 8
1982252N26269 1982 71 NA GM CHRIS 1982-09-10 18:00:00 TS 27.9000 -94.1000 45 1001 hurdat_atl main 163 147 O_____________ hurdat_atl AL051982 27.9000 -94.1000 TS 45 1001 0 6 6
1982252N26269 1982 71 NA GM CHRIS 1982-09-10 21:00:00 TS 28.1500 -94.0999 main 139 126 P_____________ AL051982 28.1500 -94.0999 TS 47 1000 0 5 2
1982252N26269 1982 71 NA GM CHRIS 1982-09-11 00:00:00 TS 28.4000 -94.1000 50 1000 hurdat_atl main 126 101 O_____________ hurdat_atl AL051982 28.4000 -94.1000 TS 50 1000 0 5 5
1982252N26269 1982 71 NA GM CHRIS 1982-09-11 03:00:00 TS 28.6775 -94.0649 main 101 77 P_____________ AL051982 28.6775 -94.0649 TS 50 998 0 6 8
1982252N26269 1982 71 NA GM CHRIS 1982-09-11 06:00:00 TS 29.0000 -94.0000 50 997 hurdat_atl main 77 44 O_____________ hurdat_atl AL051982 29.0000 -94.0000 TS 50 997 0 7 10
1982252N26269 1982 71 NA GM CHRIS 1982-09-11 09:00:00 TS 29.3700 -93.9223 main 33 0 P_____________ AL051982 29.3700 -93.9223 TS 52 995 0 8 12
1982252N26269 1982 71 NA NA CHRIS 1982-09-11 12:00:00 TS 29.8000 -93.8000 55 994 hurdat_atl main 0 0 O_____________ hurdat_atl AL051982 29.8000 -93.8000 TS 55 994 0 10 17
1982252N26269 1982 71 NA NA CHRIS 1982-09-11 15:00:00 TS 30.2851 -93.6003 main 0 0 P_____________ AL051982 30.2851 -93.6003 TS 47 996 0 11 19
1982252N26269 1982 71 NA NA CHRIS 1982-09-11 18:00:00 TS 30.8000 -93.4000 40 999 hurdat_atl main 0 0 O_____________ hurdat_atl AL051982 30.8000 -93.4000 TS 40 999 0 11 14
1982252N26269 1982 71 NA NA CHRIS 1982-09-11 21:00:00 TS 31.2999 -93.2994 main 0 0 P_____________ AL051982 31.2999 -93.2994 TS 35 1001 0 10 10
1982252N26269 1982 71 NA NA CHRIS 1982-09-12 00:00:00 TS 31.8000 -93.2000 30 1004 hurdat_atl main 0 0 O_____________ hurdat_atl AL051982 31.8000 -93.2000 TD 30 1004 -1 10 14
1982252N26269 1982 71 NA NA CHRIS 1982-09-12 03:00:00 TS 32.3000 -93.0150 main 0 0 P_____________ AL051982 32.3000 -93.0150 TD 30 1005 -1 11 19
1982252N26269 1982 71 NA NA CHRIS 1982-09-12 06:00:00 TS 32.8000 -92.8000 30 1006 hurdat_atl main 0 0 O_____________ hurdat_atl AL051982 32.8000 -92.8000 TD 30 1006 -1 11 19
1982252N26269 1982 71 NA NA CHRIS 1982-09-12 09:00:00 TS 33.2999 -92.6145 main 0 0 P_____________ AL051982 33.2999 -92.6145 TD 30 1007 -1 11 18
1982252N26269 1982 71 NA NA CHRIS 1982-09-12 12:00:00 TS 33.8000 -92.4000 30 1008 hurdat_atl main 0 0 O_____________ hurdat_atl AL051982 33.8000 -92.4000 TD 30 1008 -1 11 22
1982252N26269 1982 71 NA NA CHRIS 1982-09-12 15:00:00 TS 34.3002 -92.1210 main 0 0 P_____________ AL051982 34.3002 -92.1210 TD 27 1009 -1 11 26
1982252N26269 1982 71 NA NA CHRIS 1982-09-12 18:00:00 TS 34.8000 -91.8000 25 1010 hurdat_atl main 0 O_____________ hurdat_atl AL051982 34.8000 -91.8000 TD 25 1010 -1 11 28

About IBTrACS Database

This database is a web-friendly format of International Best Track Archive for Climate Stewardship (IBTrACS), a global best track data archive curated by NOAA dating back to 1842.

Updated: 2021-10-08